createdAt,value
2018-01-06T00:01:10.452Z,86.00
2018-01-06T00:06:11.997Z,86.00
2018-01-06T00:11:14.379Z,85.90
2018-01-06T00:16:15.971Z,85.90
2018-01-06T00:21:17.500Z,86.30
2018-01-06T00:26:19.066Z,86.20
2018-01-06T00:31:20.629Z,86.00
2018-01-06T00:36:22.185Z,85.70
2018-01-06T00:41:23.751Z,85.70
2018-01-06T00:46:25.292Z,85.80
2018-01-06T00:51:30.204Z,85.20
2018-01-06T00:56:33.337Z,85.10
2018-01-06T01:01:34.929Z,84.30
2018-01-06T01:06:36.584Z,83.70
2018-01-06T01:11:38.220Z,83.60
2018-01-06T01:16:40.485Z,83.40
2018-01-06T01:21:42.036Z,83.40
2018-01-06T01:26:44.361Z,83.10
2018-01-06T01:31:47.233Z,83.60
2018-01-06T01:36:48.741Z,83.50
2018-01-06T01:41:50.240Z,83.20
2018-01-06T01:46:51.782Z,84.40
2018-01-06T01:51:53.360Z,84.00
2018-01-06T01:56:54.926Z,84.10
2018-01-06T02:01:56.464Z,84.40
2018-01-06T02:06:58.771Z,84.70
2018-01-06T02:12:07.215Z,84.60
2018-01-06T02:17:09.521Z,85.10
2018-01-06T02:22:11.049Z,85.40
2018-01-06T02:27:13.564Z,85.70
2018-01-06T02:32:15.101Z,85.90
2018-01-06T02:37:16.688Z,85.50
2018-01-06T02:42:19.233Z,85.80
2018-01-06T02:47:20.745Z,86.00
2018-01-06T02:52:22.205Z,86.90
2018-01-06T02:57:23.748Z,86.20
2018-01-06T03:02:26.027Z,86.20
2018-01-06T03:07:28.393Z,86.20
2018-01-06T03:12:30.096Z,86.30
2018-01-06T03:17:32.364Z,85.90
2018-01-06T03:22:33.943Z,85.90
2018-01-06T03:27:37.141Z,86.30
2018-01-06T03:32:38.697Z,86.20
2018-01-06T03:37:41.211Z,86.50
2018-01-06T03:42:43.473Z,86.80
2018-01-06T03:47:45.018Z,86.80
2018-01-06T03:52:46.568Z,87.10
2018-01-06T03:57:48.134Z,87.30
2018-01-06T04:02:49.661Z,87.30
2018-01-06T04:07:51.962Z,87.50
2018-01-06T04:12:53.529Z,87.50
2018-01-06T04:17:55.805Z,87.60
2018-01-06T04:22:58.307Z,87.60
2018-01-06T04:27:59.786Z,87.50
2018-01-06T04:33:02.177Z,87.80
2018-01-06T04:38:03.713Z,87.80
2018-01-06T04:43:05.969Z,87.10
2018-01-06T04:48:07.512Z,86.90
2018-01-06T04:53:09.072Z,87.20
2018-01-06T04:58:11.169Z,87.40
2018-01-06T05:03:12.988Z,87.30
2018-01-06T05:08:15.294Z,87.50
2018-01-06T05:13:16.853Z,87.40
2018-01-06T05:18:18.519Z,87.80
2018-01-06T05:23:19.991Z,87.20
2018-01-06T05:28:21.524Z,87.80
2018-01-06T05:33:23.603Z,88.00
2018-01-06T05:38:25.162Z,87.50
2018-01-06T05:43:26.758Z,88.00
2018-01-06T05:48:29.059Z,88.20
2018-01-06T05:53:30.628Z,88.10
2018-01-06T05:58:32.209Z,86.20
2018-01-06T06:03:33.763Z,86.70
2018-01-06T06:08:36.028Z,86.60
2018-01-06T06:13:38.356Z,86.60
2018-01-06T06:18:40.935Z,86.60
2018-01-06T06:23:42.548Z,86.40
2018-01-06T06:28:44.083Z,86.90
2018-01-06T06:33:46.666Z,86.70
2018-01-06T06:38:48.204Z,86.80
2018-01-06T06:43:50.487Z,87.40
2018-01-06T06:48:53.407Z,88.30
2018-01-06T06:53:54.950Z,87.50
2018-01-06T06:58:57.221Z,88.80
2018-01-06T07:03:58.747Z,88.80
2018-01-06T07:09:01.224Z,88.70
2018-01-06T07:14:03.256Z,89.10
2018-01-06T07:19:05.556Z,88.90
2018-01-06T07:24:07.845Z,89.80
2018-01-06T07:29:10.207Z,89.00
2018-01-06T07:34:12.680Z,88.90
2018-01-06T07:39:15.149Z,89.10
2018-01-06T07:44:16.680Z,88.90
2018-01-06T07:49:18.196Z,88.70
2018-01-06T07:54:20.039Z,88.50
2018-01-06T07:59:21.588Z,88.30
2018-01-06T08:04:25.798Z,88.70
2018-01-06T08:09:27.404Z,88.70
2018-01-06T08:14:29.036Z,89.20
2018-01-06T08:19:31.604Z,88.30
2018-01-06T08:24:34.037Z,87.20
2018-01-06T08:29:36.374Z,87.20
2018-01-06T08:34:37.959Z,87.20
2018-01-06T08:39:39.555Z,87.50
2018-01-06T08:44:41.821Z,86.20
2018-01-06T08:49:43.365Z,86.10
2018-01-06T08:54:53.141Z,85.30
2018-01-06T08:59:59.553Z,84.90
2018-01-06T09:05:03.364Z,85.60
2018-01-06T09:10:07.505Z,85.60
2018-01-06T09:15:14.679Z,84.90
2018-01-06T09:20:18.040Z,84.70
2018-01-06T09:25:19.626Z,84.50
2018-01-06T09:30:21.815Z,85.50
2018-01-06T09:35:23.346Z,84.90
2018-01-06T09:40:25.641Z,84.80
2018-01-06T09:45:31.041Z,84.80
2018-01-06T09:50:35.124Z,85.10
2018-01-06T09:55:36.735Z,84.80
2018-01-06T10:00:39.249Z,84.20
2018-01-06T10:05:43.596Z,83.30
2018-01-06T10:10:47.356Z,82.20
2018-01-06T10:15:50.148Z,82.20
2018-01-06T10:20:53.364Z,82.30
2018-01-06T10:25:54.924Z,80.70
2018-01-06T10:30:56.521Z,80.30
2018-01-06T10:35:58.051Z,79.50
2018-01-06T10:40:59.588Z,77.80
2018-01-06T10:46:01.873Z,76.60
2018-01-06T10:51:05.374Z,77.70
2018-01-06T10:56:07.001Z,77.70
2018-01-06T11:01:14.579Z,78.70
2018-01-06T11:06:16.130Z,79.40
2018-01-06T11:11:18.873Z,79.60
2018-01-06T11:16:20.413Z,79.60
2018-01-06T11:21:22.412Z,80.70
2018-01-06T11:26:23.932Z,81.20
2018-01-06T11:31:25.482Z,81.90
2018-01-06T11:36:26.999Z,82.50
2018-01-06T11:41:28.565Z,82.80
2018-01-06T11:46:30.225Z,84.00
2018-01-06T11:51:31.752Z,83.30
2018-01-06T11:56:33.315Z,83.30
2018-01-06T12:01:34.869Z,84.00
2018-01-06T12:06:36.396Z,85.00
2018-01-06T12:11:38.812Z,84.70
2018-01-06T12:16:40.387Z,84.50
2018-01-06T12:21:41.948Z,84.30
2018-01-06T12:26:43.509Z,84.00
2018-01-06T12:31:45.026Z,83.80
2018-01-06T12:36:46.716Z,83.90
2018-01-06T12:41:48.992Z,84.30
2018-01-06T12:46:50.516Z,84.20
2018-01-06T12:51:52.032Z,83.80
2018-01-06T12:56:54.279Z,83.70
2018-01-06T13:01:55.844Z,83.70
2018-01-06T13:06:57.406Z,84.60
2018-01-06T13:11:58.942Z,84.80
2018-01-06T13:17:00.486Z,85.10
2018-01-06T13:22:02.037Z,86.20
2018-01-06T13:27:03.627Z,87.30
2018-01-06T13:32:05.940Z,88.40
2018-01-06T13:37:07.458Z,88.30
2018-01-06T13:42:08.983Z,88.40
2018-01-06T13:47:10.560Z,87.90
2018-01-06T13:52:12.218Z,87.90
2018-01-06T13:57:13.784Z,88.40
2018-01-06T14:02:15.338Z,88.40
2018-01-06T14:07:16.858Z,88.70
2018-01-06T14:12:18.389Z,89.10
2018-01-06T14:17:19.858Z,89.00
2018-01-06T14:22:21.416Z,89.20
2018-01-06T14:27:22.978Z,89.60
2018-01-06T14:32:24.471Z,90.10
2018-01-06T14:37:29.821Z,90.40
2018-01-06T14:42:27.550Z,90.40
2018-01-06T14:47:29.143Z,90.50
2018-01-06T14:52:31.382Z,90.80
2018-01-06T14:57:32.953Z,90.80
2018-01-06T15:02:34.460Z,91.10
2018-01-06T15:07:36.760Z,91.30
2018-01-06T15:12:38.345Z,92.10
2018-01-06T15:17:39.892Z,92.30
2018-01-06T15:22:41.489Z,91.80
2018-01-06T15:27:43.152Z,92.10
2018-01-06T15:32:44.715Z,92.10
2018-01-06T15:37:46.362Z,92.20
2018-01-06T15:42:47.972Z,92.40
2018-01-06T15:47:49.514Z,92.40
2018-01-06T15:52:51.064Z,92.50
2018-01-06T15:57:53.337Z,92.30
2018-01-06T16:02:55.622Z,92.40
2018-01-06T16:07:57.898Z,92.50
2018-01-06T16:12:59.579Z,92.50
2018-01-06T16:18:01.950Z,92.50
2018-01-06T16:23:04.341Z,92.80
2018-01-06T16:28:06.588Z,93.40
2018-01-06T16:33:08.111Z,93.40
2018-01-06T16:38:10.461Z,93.00
2018-01-06T16:43:11.977Z,92.80
2018-01-06T16:48:13.496Z,92.80
2018-01-06T16:53:15.072Z,92.60
2018-01-06T16:58:16.607Z,92.50
2018-01-06T17:03:18.129Z,92.40
2018-01-06T17:08:20.421Z,88.90
2018-01-06T17:13:22.750Z,88.40
2018-01-06T17:18:24.301Z,88.30
2018-01-06T17:23:25.847Z,89.20
2018-01-06T17:28:28.198Z,88.20
2018-01-06T17:33:29.814Z,88.00
2018-01-06T17:38:31.377Z,88.50
2018-01-06T17:43:32.909Z,88.60
2018-01-06T17:48:34.492Z,89.20
2018-01-06T17:53:37.061Z,89.50
2018-01-06T17:58:38.675Z,89.80
2018-01-06T18:03:41.003Z,89.20
2018-01-06T18:08:42.550Z,89.20
2018-01-06T18:13:44.629Z,88.70
2018-01-06T18:18:46.140Z,88.40
2018-01-06T18:23:47.689Z,87.20
2018-01-06T19:14:50.613Z,87.10
2018-01-06T19:19:52.264Z,87.20
2018-01-06T19:24:54.621Z,87.20
2018-01-06T19:29:56.484Z,87.10
2018-01-06T19:34:58.132Z,87.30
2018-01-06T19:39:59.734Z,87.70
2018-01-06T19:45:01.284Z,87.40
2018-01-06T19:50:02.860Z,88.10
2018-01-06T19:55:04.533Z,88.20
2018-01-06T20:00:06.169Z,88.70
2018-01-06T20:05:08.538Z,88.90
2018-01-06T20:10:10.077Z,88.90
2018-01-06T20:15:11.623Z,89.10
2018-01-06T20:20:13.215Z,88.60
2018-01-06T20:25:14.751Z,88.80
2018-01-06T20:30:16.291Z,88.60
2018-01-06T20:35:18.646Z,88.70
2018-01-06T20:40:20.195Z,88.70
2018-01-06T20:45:22.497Z,88.70
2018-01-06T20:50:24.130Z,88.70
2018-01-06T20:55:25.948Z,88.70
2018-01-06T21:00:28.326Z,88.00
2018-01-06T21:05:30.752Z,88.00
2018-01-06T21:10:33.097Z,88.00
2018-01-06T21:15:34.722Z,88.00
2018-01-06T21:20:36.324Z,87.50
2018-01-06T21:30:46.055Z,86.50
2018-01-06T21:35:47.603Z,87.10
2018-01-06T21:40:49.508Z,87.30
2018-01-06T21:45:51.824Z,88.40
2018-01-06T21:50:53.394Z,87.60
2018-01-06T21:55:54.981Z,88.00
2018-01-06T22:00:57.267Z,88.00
2018-01-06T22:05:59.152Z,87.60
2018-01-06T22:11:00.733Z,87.10
2018-01-06T22:16:02.533Z,87.90
2018-01-06T22:21:04.262Z,88.00
2018-01-06T22:26:05.906Z,88.10
2018-01-06T22:31:07.432Z,88.30
2018-01-06T22:36:08.905Z,87.70
2018-01-06T22:41:11.213Z,88.90
2018-01-06T22:46:13.570Z,88.00
2018-01-06T22:51:15.076Z,88.00
2018-01-06T22:56:16.605Z,88.00
2018-01-06T23:01:20.128Z,88.20
2018-01-06T23:06:21.716Z,88.50
2018-01-06T23:11:24.078Z,88.90
2018-01-06T23:16:25.649Z,88.70
2018-01-06T23:21:27.153Z,89.40
2018-01-06T23:26:28.649Z,89.50
2018-01-06T23:31:30.152Z,89.80
2018-01-06T23:36:31.694Z,89.70
2018-01-06T23:41:33.285Z,90.60
2018-01-06T23:46:34.771Z,89.70
2018-01-06T23:51:37.060Z,89.10
2018-01-06T23:56:39.318Z,88.80
